sensor_id;sensor_type;location;lat;lon;timestamp;temperature;humidity
41080;DHT22;26826;50.718;7.114;2023-06-01T00:06:30;18.40;99.10
41080;DHT22;26826;50.718;7.114;2023-06-01T00:16:32;18.10;99.90
41080;DHT22;26826;50.718;7.114;2023-06-01T00:26:33;17.90;99.90
41080;DHT22;26826;50.718;7.114;2023-06-01T00:36:34;17.50;99.90
41080;DHT22;26826;50.718;7.114;2023-06-01T00:46:36;17.20;99.90
41080;DHT22;26826;50.718;7.114;2023-06-01T00:56:37;17.10;99.90
41080;DHT22;26826;50.718;7.114;2023-06-01T01:17:26;17.00;99.90
41080;DHT22;26826;50.718;7.114;2023-06-01T01:27:57;16.80;99.90
41080;DHT22;26826;50.718;7.114;2023-06-01T01:38:00;16.80;99.90
41080;DHT22;26826;50.718;7.114;2023-06-01T01:48:23;16.60;99.90
41080;DHT22;26826;50.718;7.114;2023-06-01T01:58:24;16.50;99.90
41080;DHT22;26826;50.718;7.114;2023-06-01T02:08:26;16.40;99.90
41080;DHT22;26826;50.718;7.114;2023-06-01T02:18:26;16.30;99.90
41080;DHT22;26826;50.718;7.114;2023-06-01T02:28:29;16.10;99.90
41080;DHT22;26826;50.718;7.114;2023-06-01T02:38:30;16.10;99.90
41080;DHT22;26826;50.718;7.114;2023-06-01T02:48:30;15.90;99.90
41080;DHT22;26826;50.718;7.114;2023-06-01T02:58:31;15.70;99.90
41080;DHT22;26826;50.718;7.114;2023-06-01T03:08:32;15.50;99.90
41080;DHT22;26826;50.718;7.114;2023-06-01T03:18:34;15.50;99.90
41080;DHT22;26826;50.718;7.114;2023-06-01T03:28:35;15.40;99.90
41080;DHT22;26826;50.718;7.114;2023-06-01T03:38:35;15.50;99.90
41080;DHT22;26826;50.718;7.114;2023-06-01T03:48:36;15.40;99.90
41080;DHT22;26826;50.718;7.114;2023-06-01T03:58:36;15.30;99.90
41080;DHT22;26826;50.718;7.114;2023-06-01T04:08:37;15.00;99.90
41080;DHT22;26826;50.718;7.114;2023-06-01T04:18:38;14.90;99.90
41080;DHT22;26826;50.718;7.114;2023-06-01T04:28:38;14.90;99.90
41080;DHT22;26826;50.718;7.114;2023-06-01T04:38:43;14.80;99.90
41080;DHT22;26826;50.718;7.114;2023-06-01T04:48:44;14.90;99.90
41080;DHT22;26826;50.718;7.114;2023-06-01T04:58:46;15.00;99.90
41080;DHT22;26826;50.718;7.114;2023-06-01T05:08:48;14.90;99.90
41080;DHT22;26826;50.718;7.114;2023-06-01T05:18:48;14.80;99.90
41080;DHT22;26826;50.718;7.114;2023-06-01T05:28:49;14.80;99.90
41080;DHT22;26826;50.718;7.114;2023-06-01T05:38:50;14.90;99.90
41080;DHT22;26826;50.718;7.114;2023-06-01T05:48:50;15.10;99.90
41080;DHT22;26826;50.718;7.114;2023-06-01T05:58:51;15.30;99.90
41080;DHT22;26826;50.718;7.114;2023-06-01T06:08:53;16.10;99.90
41080;DHT22;26826;50.718;7.114;2023-06-01T06:18:53;17.10;99.90
41080;DHT22;26826;50.718;7.114;2023-06-01T06:28:54;17.60;99.90
41080;DHT22;26826;50.718;7.114;2023-06-01T06:38:55;18.20;99.90
41080;DHT22;26826;50.718;7.114;2023-06-01T06:48:55;18.60;99.90
41080;DHT22;26826;50.718;7.114;2023-06-01T06:58:57;19.20;99.90
41080;DHT22;26826;50.718;7.114;2023-06-01T07:08:57;19.60;99.90
41080;DHT22;26826;50.718;7.114;2023-06-01T07:18:58;19.90;99.90
41080;DHT22;26826;50.718;7.114;2023-06-01T07:28:59;20.10;99.90
41080;DHT22;26826;50.718;7.114;2023-06-01T07:39:00;20.40;99.90
41080;DHT22;26826;50.718;7.114;2023-06-01T07:49:01;21.00;99.90
41080;DHT22;26826;50.718;7.114;2023-06-01T07:59:02;21.30;99.90
41080;DHT22;26826;50.718;7.114;2023-06-01T08:09:03;21.60;99.90
41080;DHT22;26826;50.718;7.114;2023-06-01T08:19:03;21.70;99.90
41080;DHT22;26826;50.718;7.114;2023-06-01T08:29:06;22.00;99.90
41080;DHT22;26826;50.718;7.114;2023-06-01T08:39:20;22.30;99.90
41080;DHT22;26826;50.718;7.114;2023-06-01T08:49:23;22.60;99.90
41080;DHT22;26826;50.718;7.114;2023-06-01T08:59:25;22.60;99.90
41080;DHT22;26826;50.718;7.114;2023-06-01T09:09:26;23.10;99.90
41080;DHT22;26826;50.718;7.114;2023-06-01T09:19:42;23.40;99.00
41080;DHT22;26826;50.718;7.114;2023-06-01T09:29:52;24.20;97.80
41080;DHT22;26826;50.718;7.114;2023-06-01T09:39:53;24.50;97.00
41080;DHT22;26826;50.718;7.114;2023-06-01T09:49:53;23.80;96.90
41080;DHT22;26826;50.718;7.114;2023-06-01T10:00:01;24.10;96.40
41080;DHT22;26826;50.718;7.114;2023-06-01T10:10:13;24.80;95.10
41080;DHT22;26826;50.718;7.114;2023-06-01T10:20:14;25.40;94.60
41080;DHT22;26826;50.718;7.114;2023-06-01T10:30:15;25.90;93.20
41080;DHT22;26826;50.718;7.114;2023-06-01T10:50:17;25.30;92.30
41080;DHT22;26826;50.718;7.114;2023-06-01T11:00:24;26.30;90.30
41080;DHT22;26826;50.718;7.114;2023-06-01T11:10:53;26.60;88.20
41080;DHT22;26826;50.718;7.114;2023-06-01T11:20:57;27.30;86.00
41080;DHT22;26826;50.718;7.114;2023-06-01T11:31:00;27.50;84.80
41080;DHT22;26826;50.718;7.114;2023-06-01T11:41:02;27.60;82.60
41080;DHT22;26826;50.718;7.114;2023-06-01T11:51:04;28.00;80.90
41080;DHT22;26826;50.718;7.114;2023-06-01T12:01:05;28.00;78.60
41080;DHT22;26826;50.718;7.114;2023-06-01T12:11:07;27.70;77.90
41080;DHT22;26826;50.718;7.114;2023-06-01T12:21:11;28.20;76.50
41080;DHT22;26826;50.718;7.114;2023-06-01T12:31:13;28.90;76.60
41080;DHT22;26826;50.718;7.114;2023-06-01T12:41:14;29.30;76.10
41080;DHT22;26826;50.718;7.114;2023-06-01T12:51:15;29.20;74.70
41080;DHT22;26826;50.718;7.114;2023-06-01T13:01:15;28.90;76.30
41080;DHT22;26826;50.718;7.114;2023-06-01T13:11:16;29.50;75.40
41080;DHT22;26826;50.718;7.114;2023-06-01T13:21:18;28.60;73.80
41080;DHT22;26826;50.718;7.114;2023-06-01T13:31:18;29.10;71.80
41080;DHT22;26826;50.718;7.114;2023-06-01T13:41:20;29.20;72.40
41080;DHT22;26826;50.718;7.114;2023-06-01T13:51:20;29.20;70.00
41080;DHT22;26826;50.718;7.114;2023-06-01T14:11:26;29.30;70.00
41080;DHT22;26826;50.718;7.114;2023-06-01T14:21:27;28.80;70.90
41080;DHT22;26826;50.718;7.114;2023-06-01T14:31:29;28.60;70.30
41080;DHT22;26826;50.718;7.114;2023-06-01T14:41:29;28.50;67.70
41080;DHT22;26826;50.718;7.114;2023-06-01T14:51:30;28.80;69.60
41080;DHT22;26826;50.718;7.114;2023-06-01T15:01:33;28.30;68.90
41080;DHT22;26826;50.718;7.114;2023-06-01T15:11:33;28.10;69.60
41080;DHT22;26826;50.718;7.114;2023-06-01T15:21:34;28.00;68.20
41080;DHT22;26826;50.718;7.114;2023-06-01T15:31:35;27.60;69.00
41080;DHT22;26826;50.718;7.114;2023-06-01T15:41:35;27.80;69.00
41080;DHT22;26826;50.718;7.114;2023-06-01T15:51:36;27.80;68.50
41080;DHT22;26826;50.718;7.114;2023-06-01T16:01:37;28.00;70.20
41080;DHT22;26826;50.718;7.114;2023-06-01T16:11:37;28.00;71.00
41080;DHT22;26826;50.718;7.114;2023-06-01T16:21:38;27.70;71.20
41080;DHT22;26826;50.718;7.114;2023-06-01T16:31:38;26.60;72.80
41080;DHT22;26826;50.718;7.114;2023-06-01T16:41:39;25.60;73.90
41080;DHT22;26826;50.718;7.114;2023-06-01T16:51:39;25.50;74.30
41080;DHT22;26826;50.718;7.114;2023-06-01T17:01:41;24.90;73.50
41080;DHT22;26826;50.718;7.114;2023-06-01T17:11:41;24.30;75.40
41080;DHT22;26826;50.718;7.114;2023-06-01T17:21:42;23.90;77.00
41080;DHT22;26826;50.718;7.114;2023-06-01T17:31:43;23.40;78.60
41080;DHT22;26826;50.718;7.114;2023-06-01T17:41:43;23.00;79.10
41080;DHT22;26826;50.718;7.114;2023-06-01T17:51:44;22.80;79.50
41080;DHT22;26826;50.718;7.114;2023-06-01T18:01:44;22.40;81.70
41080;DHT22;26826;50.718;7.114;2023-06-01T18:11:45;22.20;82.80
41080;DHT22;26826;50.718;7.114;2023-06-01T18:21:46;22.30;81.80
41080;DHT22;26826;50.718;7.114;2023-06-01T18:31:46;22.10;82.60
41080;DHT22;26826;50.718;7.114;2023-06-01T18:41:47;21.60;84.30
41080;DHT22;26826;50.718;7.114;2023-06-01T18:51:48;21.40;85.50
41080;DHT22;26826;50.718;7.114;2023-06-01T19:01:53;21.10;88.10
41080;DHT22;26826;50.718;7.114;2023-06-01T19:11:54;20.60;88.80
41080;DHT22;26826;50.718;7.114;2023-06-01T19:21:54;20.30;88.90
41080;DHT22;26826;50.718;7.114;2023-06-01T19:31:57;20.00;89.10
41080;DHT22;26826;50.718;7.114;2023-06-01T19:42:07;19.80;91.50
41080;DHT22;26826;50.718;7.114;2023-06-01T19:52:09;19.50;92.20
41080;DHT22;26826;50.718;7.114;2023-06-01T20:02:33;19.30;92.70
41080;DHT22;26826;50.718;7.114;2023-06-01T20:12:39;19.00;93.40
41080;DHT22;26826;50.718;7.114;2023-06-01T20:22:39;18.80;94.00
41080;DHT22;26826;50.718;7.114;2023-06-01T20:32:40;18.70;95.30
41080;DHT22;26826;50.718;7.114;2023-06-01T20:42:40;18.50;96.80
41080;DHT22;26826;50.718;7.114;2023-06-01T20:52:41;18.20;99.40
41080;DHT22;26826;50.718;7.114;2023-06-01T21:02:41;18.00;99.90
41080;DHT22;26826;50.718;7.114;2023-06-01T21:12:45;17.60;99.90
41080;DHT22;26826;50.718;7.114;2023-06-01T21:22:51;17.40;99.90
41080;DHT22;26826;50.718;7.114;2023-06-01T21:32:57;16.90;99.90
41080;DHT22;26826;50.718;7.114;2023-06-01T21:43:01;16.60;99.90
41080;DHT22;26826;50.718;7.114;2023-06-01T21:53:02;16.40;99.90
41080;DHT22;26826;50.718;7.114;2023-06-01T22:03:06;16.20;99.90
41080;DHT22;26826;50.718;7.114;2023-06-01T22:13:07;16.10;99.90
41080;DHT22;26826;50.718;7.114;2023-06-01T22:23:10;16.00;99.90
41080;DHT22;26826;50.718;7.114;2023-06-01T22:33:12;15.80;99.90
41080;DHT22;26826;50.718;7.114;2023-06-01T22:43:13;15.70;99.90
41080;DHT22;26826;50.718;7.114;2023-06-01T22:53:17;15.60;99.90
41080;DHT22;26826;50.718;7.114;2023-06-01T23:03:18;15.60;99.90
41080;DHT22;26826;50.718;7.114;2023-06-01T23:13:22;15.50;99.90
41080;DHT22;26826;50.718;7.114;2023-06-01T23:23:28;15.50;99.90
41080;DHT22;26826;50.718;7.114;2023-06-01T23:33:31;15.30;99.90
41080;DHT22;26826;50.718;7.114;2023-06-01T23:43:32;15.30;99.90
41080;DHT22;26826;50.718;7.114;2023-06-01T23:53:34;15.30;99.90
